sensor_id;sensor_type;location;lat;lon;timestamp;pressure;altitude;pressure_sealevel;temperature;humidity
82222;BME280;71818;52.352;10.912;2023-09-19T00:00:23;99295.47;;;14.30;92.83
82222;BME280;71818;52.352;10.912;2023-09-19T00:02:56;99307.81;;;14.31;92.88
82222;BME280;71818;52.352;10.912;2023-09-19T00:05:23;99306.16;;;14.30;92.93
82222;BME280;71818;52.352;10.912;2023-09-19T00:07:53;99321.84;;;14.33;92.96
82222;BME280;71818;52.352;10.912;2023-09-19T00:10:23;99314.50;;;14.35;92.69
82222;BME280;71818;52.352;10.912;2023-09-19T00:12:52;99323.53;;;14.43;92.13
82222;BME280;71818;52.352;10.912;2023-09-19T00:15:21;99324.91;;;14.47;91.45
82222;BME280;71818;52.352;10.912;2023-09-19T00:17:47;99316.91;;;14.47;91.21
82222;BME280;71818;52.352;10.912;2023-09-19T00:20:13;99314.22;;;14.47;90.95
82222;BME280;71818;52.352;10.912;2023-09-19T00:22:40;99320.25;;;14.49;90.48
82222;BME280;71818;52.352;10.912;2023-09-19T00:25:07;99320.25;;;14.49;90.33
82222;BME280;71818;52.352;10.912;2023-09-19T00:27:33;99316.56;;;14.50;89.91
82222;BME280;71818;52.352;10.912;2023-09-19T00:29:58;99318.06;;;14.44;90.14
82222;BME280;71818;52.352;10.912;2023-09-19T00:32:25;99323.25;;;14.46;89.65
82222;BME280;71818;52.352;10.912;2023-09-19T00:34:55;99314.56;;;14.44;89.67
82222;BME280;71818;52.352;10.912;2023-09-19T00:37:21;99318.91;;;14.45;89.48
82222;BME280;71818;52.352;10.912;2023-09-19T00:39:46;99324.91;;;14.47;88.87
82222;BME280;71818;52.352;10.912;2023-09-19T00:42:19;99325.25;;;14.52;88.42
82222;BME280;71818;52.352;10.912;2023-09-19T00:44:46;99316.78;;;14.56;88.01
82222;BME280;71818;52.352;10.912;2023-09-19T00:47:11;99316.59;;;14.66;87.38
82222;BME280;71818;52.352;10.912;2023-09-19T00:49:41;99318.44;;;14.57;87.71
82222;BME280;71818;52.352;10.912;2023-09-19T00:52:07;99325.13;;;14.61;87.47
82222;BME280;71818;52.352;10.912;2023-09-19T00:54:35;99324.63;;;14.58;87.75
82222;BME280;71818;52.352;10.912;2023-09-19T00:57:01;99328.97;;;14.59;87.90
82222;BME280;71818;52.352;10.912;2023-09-19T00:59:27;99333.13;;;14.61;87.77
82222;BME280;71818;52.352;10.912;2023-09-19T01:01:54;99341.31;;;14.60;87.68
82222;BME280;71818;52.352;10.912;2023-09-19T01:04:19;99344.81;;;14.60;87.97
82222;BME280;71818;52.352;10.912;2023-09-19T01:06:45;99339.28;;;14.54;88.03
82222;BME280;71818;52.352;10.912;2023-09-19T01:09:11;99335.94;;;14.52;88.21
82222;BME280;71818;52.352;10.912;2023-09-19T01:11:45;99339.66;;;14.59;88.05
82222;BME280;71818;52.352;10.912;2023-09-19T01:16:46;99334.78;;;14.54;88.13
82222;BME280;71818;52.352;10.912;2023-09-19T01:22:28;99334.47;;;14.57;87.83
82222;BME280;71818;52.352;10.912;2023-09-19T01:26:00;99331.63;;;14.59;87.55
82222;BME280;71818;52.352;10.912;2023-09-19T01:28:51;99341.00;;;14.63;87.50
82222;BME280;71818;52.352;10.912;2023-09-19T01:31:13;99344.00;;;14.68;86.99
82222;BME280;71818;52.352;10.912;2023-09-19T01:33:55;99340.81;;;14.64;87.10
82222;BME280;71818;52.352;10.912;2023-09-19T01:36:26;99333.13;;;14.61;87.28
82222;BME280;71818;52.352;10.912;2023-09-19T01:38:53;99332.31;;;14.61;87.30
82222;BME280;71818;52.352;10.912;2023-09-19T01:41:26;99339.66;;;14.59;87.29
82222;BME280;71818;52.352;10.912;2023-09-19T01:43:55;99334.63;;;14.56;87.60
82222;BME280;71818;52.352;10.912;2023-09-19T01:46:25;99332.47;;;14.59;87.24
82222;BME280;71818;52.352;10.912;2023-09-19T01:49:18;99341.13;;;14.53;87.48
82222;BME280;71818;52.352;10.912;2023-09-19T01:52:10;99354.16;;;14.56;87.26
82222;BME280;71818;52.352;10.912;2023-09-19T01:54:58;99352.63;;;14.54;87.31
82222;BME280;71818;52.352;10.912;2023-09-19T01:57:29;99357.81;;;14.47;87.55
82222;BME280;71818;52.352;10.912;2023-09-19T02:00:08;99346.63;;;14.44;87.91
82222;BME280;71818;52.352;10.912;2023-09-19T02:02:38;99355.31;;;14.46;87.93
82222;BME280;71818;52.352;10.912;2023-09-19T02:05:05;99363.56;;;14.34;88.36
82222;BME280;71818;52.352;10.912;2023-09-19T02:07:31;99373.22;;;14.27;88.86
82222;BME280;71818;52.352;10.912;2023-09-19T02:09:59;99371.00;;;14.23;89.43
82222;BME280;71818;52.352;10.912;2023-09-19T02:12:31;99367.31;;;14.16;89.50
82222;BME280;71818;52.352;10.912;2023-09-19T02:14:58;99375.66;;;14.13;89.90
82222;BME280;71818;52.352;10.912;2023-09-19T02:17:24;99382.84;;;14.12;89.87
82222;BME280;71818;52.352;10.912;2023-09-19T02:19:54;99393.50;;;14.12;89.89
82222;BME280;71818;52.352;10.912;2023-09-19T02:22:23;99386.34;;;14.13;89.67
82222;BME280;71818;52.352;10.912;2023-09-19T02:24:50;99391.19;;;14.17;89.59
82222;BME280;71818;52.352;10.912;2023-09-19T02:27:16;99391.34;;;14.16;89.64
82222;BME280;71818;52.352;10.912;2023-09-19T02:29:43;99391.69;;;14.13;89.42
82222;BME280;71818;52.352;10.912;2023-09-19T02:32:08;99386.34;;;14.13;89.74
82222;BME280;71818;52.352;10.912;2023-09-19T02:34:37;99384.34;;;14.15;89.65
82222;BME280;71818;52.352;10.912;2023-09-19T02:37:07;99392.19;;;14.16;89.52
82222;BME280;71818;52.352;10.912;2023-09-19T02:39:34;99391.53;;;14.22;88.98
82222;BME280;71818;52.352;10.912;2023-09-19T02:41:59;99386.53;;;14.19;89.25
82222;BME280;71818;52.352;10.912;2023-09-19T02:44:25;99382.03;;;14.20;89.01
82222;BME280;71818;52.352;10.912;2023-09-19T02:46:51;99379.50;;;14.18;88.86
82222;BME280;71818;52.352;10.912;2023-09-19T02:49:16;99385.69;;;14.19;89.13
82222;BME280;71818;52.352;10.912;2023-09-19T02:51:43;99389.88;;;14.21;88.29
82222;BME280;71818;52.352;10.912;2023-09-19T02:54:09;99387.19;;;14.21;88.64
82222;BME280;71818;52.352;10.912;2023-09-19T02:56:35;99397.03;;;14.21;88.57
82222;BME280;71818;52.352;10.912;2023-09-19T02:59:01;99399.53;;;14.22;88.56
82222;BME280;71818;52.352;10.912;2023-09-19T03:01:27;99394.53;;;14.19;88.68
82222;BME280;71818;52.352;10.912;2023-09-19T03:03:55;99399.72;;;14.21;88.41
82222;BME280;71818;52.352;10.912;2023-09-19T03:06:21;99400.25;;;14.24;87.98
82222;BME280;71818;52.352;10.912;2023-09-19T03:08:47;99402.94;;;14.24;87.63
82222;BME280;71818;52.352;10.912;2023-09-19T03:11:15;99413.06;;;14.21;87.93
82222;BME280;71818;52.352;10.912;2023-09-19T03:13:44;99415.22;;;14.17;88.06
82222;BME280;71818;52.352;10.912;2023-09-19T03:16:10;99416.69;;;14.12;88.28
82222;BME280;71818;52.352;10.912;2023-09-19T03:18:35;99414.53;;;14.15;88.07
82222;BME280;71818;52.352;10.912;2023-09-19T03:21:01;99417.53;;;14.12;88.31
82222;BME280;71818;52.352;10.912;2023-09-19T03:23:27;99422.66;;;14.05;88.46
82222;BME280;71818;52.352;10.912;2023-09-19T03:25:53;99434.84;;;14.08;88.25
82222;BME280;71818;52.352;10.912;2023-09-19T03:28:19;99427.47;;;14.02;88.48
82222;BME280;71818;52.352;10.912;2023-09-19T03:30:46;99431.66;;;14.04;88.45
82222;BME280;71818;52.352;10.912;2023-09-19T03:33:12;99427.31;;;14.03;88.32
82222;BME280;71818;52.352;10.912;2023-09-19T03:35:39;99436.53;;;14.09;87.86
82222;BME280;71818;52.352;10.912;2023-09-19T03:38:05;99439.81;;;14.03;87.92
82222;BME280;71818;52.352;10.912;2023-09-19T03:40:30;99439.81;;;14.03;87.90
82222;BME280;71818;52.352;10.912;2023-09-19T03:42:56;99437.94;;;13.95;88.00
82222;BME280;71818;52.352;10.912;2023-09-19T03:45:21;99444.41;;;13.93;88.29
82222;BME280;71818;52.352;10.912;2023-09-19T03:47:47;99442.53;;;13.85;88.50
82222;BME280;71818;52.352;10.912;2023-09-19T03:50:12;99437.94;;;13.95;88.03
82222;BME280;71818;52.352;10.912;2023-09-19T03:52:43;99452.75;;;13.90;88.20
82222;BME280;71818;52.352;10.912;2023-09-19T03:55:08;99435.38;;;13.86;87.96
82222;BME280;71818;52.352;10.912;2023-09-19T03:57:35;99440.88;;;13.84;88.05
82222;BME280;71818;52.352;10.912;2023-09-19T04:00:01;99431.66;;;13.79;88.24
82222;BME280;71818;52.352;10.912;2023-09-19T04:02:26;99445.28;;;13.75;88.58
82222;BME280;71818;52.352;10.912;2023-09-19T04:04:58;99451.31;;;13.77;88.18
82222;BME280;71818;52.352;10.912;2023-09-19T04:07:23;99447.59;;;13.70;88.64
82222;BME280;71818;52.352;10.912;2023-09-19T04:09:51;99448.97;;;13.74;88.71
82222;BME280;71818;52.352;10.912;2023-09-19T04:12:18;99448.28;;;13.72;88.51
82222;BME280;71818;52.352;10.912;2023-09-19T04:14:44;99451.31;;;13.77;88.38
82222;BME280;71818;52.352;10.912;2023-09-19T04:17:09;99455.53;;;13.80;88.20
82222;BME280;71818;52.352;10.912;2023-09-19T04:19:36;99461.94;;;13.69;88.55
82222;BME280;71818;52.352;10.912;2023-09-19T04:22:01;99460.09;;;13.70;88.86
82222;BME280;71818;52.352;10.912;2023-09-19T04:24:27;99469.41;;;13.66;88.75
82222;BME280;71818;52.352;10.912;2023-09-19T04:26:52;99466.94;;;13.72;89.05
82222;BME280;71818;52.352;10.912;2023-09-19T04:29:18;99477.94;;;13.69;88.94
82222;BME280;71818;52.352;10.912;2023-09-19T04:31:44;99484.09;;;13.70;88.94
82222;BME280;71818;52.352;10.912;2023-09-19T04:34:11;99478.16;;;13.76;88.42
82222;BME280;71818;52.352;10.912;2023-09-19T04:36:43;99485.31;;;13.75;88.14
82222;BME280;71818;52.352;10.912;2023-09-19T04:39:08;99488.38;;;13.81;87.87
82222;BME280;71818;52.352;10.912;2023-09-19T04:41:36;99494.56;;;13.81;87.40
82222;BME280;71818;52.352;10.912;2023-09-19T04:44:05;99495.06;;;13.85;87.09
82222;BME280;71818;52.352;10.912;2023-09-19T04:46:30;99497.97;;;13.73;87.42
82222;BME280;71818;52.352;10.912;2023-09-19T04:48:59;99508.28;;;13.68;87.67
82222;BME280;71818;52.352;10.912;2023-09-19T04:51:24;99511.25;;;13.65;87.63
82222;BME280;71818;52.352;10.912;2023-09-19T04:53:52;99517.13;;;13.69;87.44
82222;BME280;71818;52.352;10.912;2023-09-19T04:56:17;99508.63;;;13.73;87.06
82222;BME280;71818;52.352;10.912;2023-09-19T04:58:42;99521.31;;;13.71;87.13
82222;BME280;71818;52.352;10.912;2023-09-19T05:01:08;99524.97;;;13.70;87.05
82222;BME280;71818;52.352;10.912;2023-09-19T05:03:37;99524.66;;;13.73;86.61
82222;BME280;71818;52.352;10.912;2023-09-19T05:06:02;99515.97;;;13.71;86.41
82222;BME280;71818;52.352;10.912;2023-09-19T05:08:29;99518.78;;;13.70;86.10
82222;BME280;71818;52.352;10.912;2023-09-19T05:10:54;99521.63;;;13.68;85.87
82222;BME280;71818;52.352;10.912;2023-09-19T05:13:21;99521.25;;;13.63;86.03
82222;BME280;71818;52.352;10.912;2023-09-19T05:15:48;99523.59;;;13.66;85.63
82222;BME280;71818;52.352;10.912;2023-09-19T05:18:15;99529.25;;;13.63;85.94
82222;BME280;71818;52.352;10.912;2023-09-19T05:20:40;99530.50;;;13.59;85.83
82222;BME280;71818;52.352;10.912;2023-09-19T05:23:07;99532.88;;;13.62;85.94
82222;BME280;71818;52.352;10.912;2023-09-19T05:25:35;99530.91;;;13.64;86.05
82222;BME280;71818;52.352;10.912;2023-09-19T05:28:10;99532.97;;;13.70;85.88
82222;BME280;71818;52.352;10.912;2023-09-19T05:30:37;99524.97;;;13.70;85.98
82222;BME280;71818;52.352;10.912;2023-09-19T05:33:04;99523.66;;;13.74;86.07
82222;BME280;71818;52.352;10.912;2023-09-19T05:35:30;99524.50;;;13.75;86.19
82222;BME280;71818;52.352;10.912;2023-09-19T05:37:56;99529.97;;;13.73;86.21
82222;BME280;71818;52.352;10.912;2023-09-19T05:40:23;99533.66;;;13.72;86.41
82222;BME280;71818;52.352;10.912;2023-09-19T05:42:49;99530.50;;;13.77;86.06
82222;BME280;71818;52.352;10.912;2023-09-19T05:45:16;99528.25;;;13.82;85.46
82222;BME280;71818;52.352;10.912;2023-09-19T05:47:49;99531.75;;;13.83;85.08
82222;BME280;71818;52.352;10.912;2023-09-19T05:50:16;99535.94;;;13.85;84.62
82222;BME280;71818;52.352;10.912;2023-09-19T05:52:42;99533.41;;;13.84;84.46
82222;BME280;71818;52.352;10.912;2023-09-19T05:55:09;99533.41;;;13.84;83.88
82222;BME280;71818;52.352;10.912;2023-09-19T05:57:36;99543.25;;;13.83;83.89
82222;BME280;71818;52.352;10.912;2023-09-19T06:00:05;99542.03;;;13.77;84.04
82222;BME280;71818;52.352;10.912;2023-09-19T06:02:38;99548.50;;;13.75;84.00
82222;BME280;71818;52.352;10.912;2023-09-19T06:05:06;99556.34;;;13.76;83.77
82222;BME280;71818;52.352;10.912;2023-09-19T06:07:32;99559.72;;;13.79;83.37
82222;BME280;71818;52.352;10.912;2023-09-19T06:10:05;99561.84;;;13.75;83.25
82222;BME280;71818;52.352;10.912;2023-09-19T06:12:31;99566.97;;;13.68;83.51
82222;BME280;71818;52.352;10.912;2023-09-19T06:14:59;99571.63;;;13.66;83.49
82222;BME280;71818;52.352;10.912;2023-09-19T06:17:24;99573.19;;;13.59;83.68
82222;BME280;71818;52.352;10.912;2023-09-19T06:19:52;99593.31;;;13.54;84.05
82222;BME280;71818;52.352;10.912;2023-09-19T06:22:17;99588.44;;;13.49;84.35
82222;BME280;71818;52.352;10.912;2023-09-19T06:24:45;99596.97;;;13.53;83.82
82222;BME280;71818;52.352;10.912;2023-09-19T06:27:12;99597.56;;;13.46;84.18
82222;BME280;71818;52.352;10.912;2023-09-19T06:29:38;99613.69;;;13.45;84.02
82222;BME280;71818;52.352;10.912;2023-09-19T06:32:09;99611.59;;;13.49;84.07
82222;BME280;71818;52.352;10.912;2023-09-19T06:34:35;99629.81;;;13.53;83.87
82222;BME280;71818;52.352;10.912;2023-09-19T06:37:01;99637.91;;;13.61;83.46
82222;BME280;71818;52.352;10.912;2023-09-19T06:39:28;99641.34;;;13.71;82.82
82222;BME280;71818;52.352;10.912;2023-09-19T06:41:53;99643.34;;;13.87;82.56
82222;BME280;71818;52.352;10.912;2023-09-19T06:44:19;99638.31;;;14.02;81.27
82222;BME280;71818;52.352;10.912;2023-09-19T06:46:47;99634.13;;;14.17;80.38
82222;BME280;71818;52.352;10.912;2023-09-19T06:49:15;99645.59;;;14.27;80.44
82222;BME280;71818;52.352;10.912;2023-09-19T06:51:40;99652.28;;;14.31;79.61
82222;BME280;71818;52.352;10.912;2023-09-19T06:54:08;99654.47;;;14.36;78.68
82222;BME280;71818;52.352;10.912;2023-09-19T06:56:33;99656.13;;;14.47;78.98
82222;BME280;71818;52.352;10.912;2023-09-19T06:58:59;99653.13;;;14.50;77.58
82222;BME280;71818;52.352;10.912;2023-09-19T07:01:24;99655.81;;;14.50;77.17
82222;BME280;71818;52.352;10.912;2023-09-19T07:03:50;99652.22;;;14.59;77.04
82222;BME280;71818;52.352;10.912;2023-09-19T07:06:16;99645.63;;;14.71;76.10
82222;BME280;71818;52.352;10.912;2023-09-19T07:08:41;99650.41;;;14.68;75.75
82222;BME280;71818;52.352;10.912;2023-09-19T07:11:07;99643.16;;;14.78;74.28
82222;BME280;71818;52.352;10.912;2023-09-19T07:13:32;99643.66;;;14.81;74.13
82222;BME280;71818;52.352;10.912;2023-09-19T07:16:00;99644.19;;;14.85;73.73
82222;BME280;71818;52.352;10.912;2023-09-19T07:18:26;99644.75;;;14.88;73.14
82222;BME280;71818;52.352;10.912;2023-09-19T07:20:57;99636.22;;;14.93;73.12
82222;BME280;71818;52.352;10.912;2023-09-19T07:23:26;99637.41;;;14.90;73.46
82222;BME280;71818;52.352;10.912;2023-09-19T07:25:51;99637.25;;;15.00;74.06
82222;BME280;71818;52.352;10.912;2023-09-19T07:28:17;99631.56;;;14.95;72.70
82222;BME280;71818;52.352;10.912;2023-09-19T07:30:43;99639.00;;;15.09;73.42
82222;BME280;71818;52.352;10.912;2023-09-19T07:33:09;99638.16;;;15.09;72.17
82222;BME280;71818;52.352;10.912;2023-09-19T07:35:38;99645.75;;;15.21;72.54
82222;BME280;71818;52.352;10.912;2023-09-19T07:38:07;99640.50;;;15.12;71.69
82222;BME280;71818;52.352;10.912;2023-09-19T07:40:33;99650.25;;;15.21;71.21
82222;BME280;71818;52.352;10.912;2023-09-19T07:42:58;99648.59;;;15.20;70.16
82222;BME280;71818;52.352;10.912;2023-09-19T07:45:30;99660.53;;;15.42;70.88
82222;BME280;71818;52.352;10.912;2023-09-19T07:47:56;99662.03;;;15.62;69.98
82222;BME280;71818;52.352;10.912;2023-09-19T07:50:22;99664.25;;;15.83;69.07
82222;BME280;71818;52.352;10.912;2023-09-19T07:52:49;99669.91;;;15.46;69.90
82222;BME280;71818;52.352;10.912;2023-09-19T07:55:16;99680.19;;;15.59;70.32
82222;BME280;71818;52.352;10.912;2023-09-19T07:57:45;99679.31;;;15.92;69.04
82222;BME280;71818;52.352;10.912;2023-09-19T08:00:12;99681.59;;;15.63;69.27
82222;BME280;71818;52.352;10.912;2023-09-19T08:02:41;99684.50;;;15.51;69.07
82222;BME280;71818;52.352;10.912;2023-09-19T08:05:11;99691.28;;;15.64;69.61
82222;BME280;71818;52.352;10.912;2023-09-19T08:07:38;99680.16;;;15.93;67.76
82222;BME280;71818;52.352;10.912;2023-09-19T08:10:07;99691.06;;;16.07;67.87
82222;BME280;71818;52.352;10.912;2023-09-19T08:12:36;99693.03;;;15.89;66.19
82222;BME280;71818;52.352;10.912;2023-09-19T08:15:03;99685.88;;;15.98;66.97
82222;BME280;71818;52.352;10.912;2023-09-19T08:17:28;99681.06;;;16.18;67.14
82222;BME280;71818;52.352;10.912;2023-09-19T08:19:54;99698.88;;;15.93;66.81
82222;BME280;71818;52.352;10.912;2023-09-19T08:22:20;99707.38;;;15.72;65.46
82222;BME280;71818;52.352;10.912;2023-09-19T08:24:46;99707.19;;;16.24;65.06
82222;BME280;71818;52.352;10.912;2023-09-19T08:27:13;99704.50;;;16.32;64.69
82222;BME280;71818;52.352;10.912;2023-09-19T08:29:39;99705.50;;;16.23;63.81
82222;BME280;71818;52.352;10.912;2023-09-19T08:32:05;99702.34;;;16.27;63.66
82222;BME280;71818;52.352;10.912;2023-09-19T08:34:30;99708.56;;;16.60;63.99
82222;BME280;71818;52.352;10.912;2023-09-19T08:36:59;99705.91;;;17.01;62.87
82222;BME280;71818;52.352;10.912;2023-09-19T08:39:25;99713.06;;;16.43;63.60
82222;BME280;71818;52.352;10.912;2023-09-19T08:41:57;99710.41;;;16.60;62.38
82222;BME280;71818;52.352;10.912;2023-09-19T08:44:24;99709.56;;;16.84;61.68
82222;BME280;71818;52.352;10.912;2023-09-19T08:46:54;99706.06;;;16.59;61.25
82222;BME280;71818;52.352;10.912;2023-09-19T08:50:04;99713.59;;;16.55;62.29
82222;BME280;71818;52.352;10.912;2023-09-19T08:52:42;99709.91;;;16.64;62.47
82222;BME280;71818;52.352;10.912;2023-09-19T08:55:12;99715.25;;;16.48;63.14
82222;BME280;71818;52.352;10.912;2023-09-19T08:57:41;99713.91;;;16.52;62.30
82222;BME280;71818;52.352;10.912;2023-09-19T09:00:09;99715.19;;;16.16;61.51
82222;BME280;71818;52.352;10.912;2023-09-19T09:02:37;99716.09;;;16.40;62.08
82222;BME280;71818;52.352;10.912;2023-09-19T09:05:05;99718.22;;;16.21;62.04
82222;BME280;71818;52.352;10.912;2023-09-19T09:07:32;99722.25;;;16.33;62.56
82222;BME280;71818;52.352;10.912;2023-09-19T09:10:00;99708.03;;;16.32;62.39
82222;BME280;71818;52.352;10.912;2023-09-19T09:12:27;99712.09;;;16.69;62.53
82222;BME280;71818;52.352;10.912;2023-09-19T09:14:52;99706.75;;;16.85;61.91
82222;BME280;71818;52.352;10.912;2023-09-19T09:17:18;99707.56;;;17.02;61.22
82222;BME280;71818;52.352;10.912;2023-09-19T09:19:46;99703.03;;;17.11;61.45
82222;BME280;71818;52.352;10.912;2023-09-19T09:22:12;99703.81;;;17.27;61.63
82222;BME280;71818;52.352;10.912;2023-09-19T09:24:54;99712.28;;;16.92;61.32
82222;BME280;71818;52.352;10.912;2023-09-19T09:27:20;99727.38;;;16.85;61.22
82222;BME280;71818;52.352;10.912;2023-09-19T09:29:49;99722.81;;;16.93;60.64
82222;BME280;71818;52.352;10.912;2023-09-19T09:32:20;99727.53;;;16.75;62.04
82222;BME280;71818;52.352;10.912;2023-09-19T09:34:54;99714.41;;;16.64;61.20
82222;BME280;71818;52.352;10.912;2023-09-19T09:37:20;99727.31;;;16.52;60.98
82222;BME280;71818;52.352;10.912;2023-09-19T09:39:57;99728.53;;;16.74;59.78
82222;BME280;71818;52.352;10.912;2023-09-19T09:42:35;99736.72;;;16.97;60.82
82222;BME280;71818;52.352;10.912;2023-09-19T09:45:20;99733.88;;;16.98;59.44
82222;BME280;71818;52.352;10.912;2023-09-19T09:47:54;99722.34;;;16.73;59.26
82222;BME280;71818;52.352;10.912;2023-09-19T09:50:25;99735.91;;;16.88;60.54
82222;BME280;71818;52.352;10.912;2023-09-19T09:52:56;99735.91;;;16.80;59.91
82222;BME280;71818;52.352;10.912;2023-09-19T09:55:58;99735.41;;;16.85;59.75
82222;BME280;71818;52.352;10.912;2023-09-19T09:58:28;99728.69;;;17.05;58.49
82222;BME280;71818;52.352;10.912;2023-09-19T10:01:04;99727.75;;;17.53;57.72
82222;BME280;71818;52.352;10.912;2023-09-19T10:03:37;99726.28;;;17.26;57.81
82222;BME280;71818;52.352;10.912;2023-09-19T10:06:14;99726.16;;;17.12;57.53
82222;BME280;71818;52.352;10.912;2023-09-19T10:09:05;99720.94;;;17.26;58.68
82222;BME280;71818;52.352;10.912;2023-09-19T10:11:42;99734.19;;;17.83;57.93
82222;BME280;71818;52.352;10.912;2023-09-19T10:14:17;99733.63;;;17.49;56.33
82222;BME280;71818;52.352;10.912;2023-09-19T10:16:49;99723.13;;;17.31;57.24
82222;BME280;71818;52.352;10.912;2023-09-19T10:19:20;99725.44;;;17.26;57.59
82222;BME280;71818;52.352;10.912;2023-09-19T10:21:49;99726.03;;;17.60;57.92
82222;BME280;71818;52.352;10.912;2023-09-19T10:24:15;99729.94;;;17.50;56.85
82222;BME280;71818;52.352;10.912;2023-09-19T10:26:43;99735.59;;;17.71;56.79
82222;BME280;71818;52.352;10.912;2023-09-19T10:29:13;99730.78;;;17.42;56.71
82222;BME280;71818;52.352;10.912;2023-09-19T10:31:39;99736.44;;;17.63;55.37
82222;BME280;71818;52.352;10.912;2023-09-19T10:34:14;99734.91;;;17.61;55.98
82222;BME280;71818;52.352;10.912;2023-09-19T10:36:44;99746.81;;;18.14;55.96
82222;BME280;71818;52.352;10.912;2023-09-19T10:39:10;99733.84;;;17.86;54.95
82222;BME280;71818;52.352;10.912;2023-09-19T10:41:39;99743.94;;;17.76;55.31
82222;BME280;71818;52.352;10.912;2023-09-19T10:44:04;99747.44;;;17.85;55.18
82222;BME280;71818;52.352;10.912;2023-09-19T10:46:32;99743.19;;;17.99;55.58
82222;BME280;71818;52.352;10.912;2023-09-19T10:49:01;99728.84;;;17.83;56.06
82222;BME280;71818;52.352;10.912;2023-09-19T10:51:31;99734.25;;;17.67;55.56
82222;BME280;71818;52.352;10.912;2023-09-19T10:54:11;99723.69;;;17.66;55.28
82222;BME280;71818;52.352;10.912;2023-09-19T10:56:42;99724.91;;;17.47;55.21
82222;BME280;71818;52.352;10.912;2023-09-19T10:59:18;99730.91;;;17.57;55.98
82222;BME280;71818;52.352;10.912;2023-09-19T11:01:45;99727.31;;;17.33;56.29
82222;BME280;71818;52.352;10.912;2023-09-19T11:07:01;99726.59;;;17.40;56.75
82222;BME280;71818;52.352;10.912;2023-09-19T11:16:04;99714.75;;;17.73;57.50
82222;BME280;71818;52.352;10.912;2023-09-19T11:26:43;99719.66;;;18.09;55.65
82222;BME280;71818;52.352;10.912;2023-09-19T11:29:25;99718.19;;;17.98;54.84
82222;BME280;71818;52.352;10.912;2023-09-19T11:31:52;99725.13;;;17.84;55.27
82222;BME280;71818;52.352;10.912;2023-09-19T11:39:39;99709.13;;;18.22;54.08
82222;BME280;71818;52.352;10.912;2023-09-19T11:48:05;99721.97;;;17.81;54.76
82222;BME280;71818;52.352;10.912;2023-09-19T11:50:32;99722.34;;;18.09;54.92
82222;BME280;71818;52.352;10.912;2023-09-19T11:52:59;99720.25;;;17.88;54.88
82222;BME280;71818;52.352;10.912;2023-09-19T11:55:25;99725.78;;;17.95;55.19
82222;BME280;71818;52.352;10.912;2023-09-19T11:57:55;99724.56;;;17.97;54.17
82222;BME280;71818;52.352;10.912;2023-09-19T12:00:20;99729.09;;;18.28;54.40
82222;BME280;71818;52.352;10.912;2023-09-19T12:02:54;99729.13;;;17.88;54.52
82222;BME280;71818;52.352;10.912;2023-09-19T12:05:28;99720.97;;;18.13;55.20
82222;BME280;71818;52.352;10.912;2023-09-19T12:07:54;99726.97;;;18.23;55.69
82222;BME280;71818;52.352;10.912;2023-09-19T12:10:20;99718.72;;;18.25;54.99
82222;BME280;71818;52.352;10.912;2023-09-19T12:12:48;99722.44;;;18.15;52.87
82222;BME280;71818;52.352;10.912;2023-09-19T12:15:14;99731.06;;;18.34;54.13
82222;BME280;71818;52.352;10.912;2023-09-19T12:17:41;99724.78;;;18.18;52.95
82222;BME280;71818;52.352;10.912;2023-09-19T12:20:08;99722.00;;;18.35;54.12
82222;BME280;71818;52.352;10.912;2023-09-19T12:22:44;99718.94;;;18.38;52.75
82222;BME280;71818;52.352;10.912;2023-09-19T12:25:10;99722.50;;;18.38;53.92
82222;BME280;71818;52.352;10.912;2023-09-19T12:27:50;99724.00;;;18.41;53.09
82222;BME280;71818;52.352;10.912;2023-09-19T12:30:19;99711.59;;;18.32;52.30
82222;BME280;71818;52.352;10.912;2023-09-19T12:32:46;99717.00;;;18.55;53.53
82222;BME280;71818;52.352;10.912;2023-09-19T12:35:31;99719.31;;;18.35;53.71
82222;BME280;71818;52.352;10.912;2023-09-19T12:38:00;99724.19;;;18.31;52.72
82222;BME280;71818;52.352;10.912;2023-09-19T12:40:26;99714.97;;;18.57;52.29
82222;BME280;71818;52.352;10.912;2023-09-19T12:42:54;99721.38;;;18.56;52.73
82222;BME280;71818;52.352;10.912;2023-09-19T12:45:30;99718.25;;;18.44;52.54
82222;BME280;71818;52.352;10.912;2023-09-19T12:48:22;99715.38;;;18.23;52.86
82222;BME280;71818;52.352;10.912;2023-09-19T12:51:04;99712.06;;;18.35;53.82
82222;BME280;71818;52.352;10.912;2023-09-19T12:53:45;99709.56;;;18.11;53.17
82222;BME280;71818;52.352;10.912;2023-09-19T12:56:14;99714.47;;;18.07;53.77
82222;BME280;71818;52.352;10.912;2023-09-19T12:58:57;99711.34;;;18.18;54.12
82222;BME280;71818;52.352;10.912;2023-09-19T13:01:28;99716.81;;;18.02;53.30
82222;BME280;71818;52.352;10.912;2023-09-19T13:04:20;99721.75;;;17.90;54.04
82222;BME280;71818;52.352;10.912;2023-09-19T13:06:52;99723.19;;;18.01;53.24
82222;BME280;71818;52.352;10.912;2023-09-19T13:09:21;99711.97;;;18.29;53.68
82222;BME280;71818;52.352;10.912;2023-09-19T13:11:48;99714.50;;;18.22;52.36
82222;BME280;71818;52.352;10.912;2023-09-19T13:14:22;99724.09;;;18.25;53.27
82222;BME280;71818;52.352;10.912;2023-09-19T13:22:35;99719.22;;;18.20;53.07
82222;BME280;71818;52.352;10.912;2023-09-19T13:24:50;99710.28;;;18.28;53.70
82222;BME280;71818;52.352;10.912;2023-09-19T13:27:16;99710.13;;;18.29;53.21
82222;BME280;71818;52.352;10.912;2023-09-19T13:29:42;99715.53;;;18.21;52.81
82222;BME280;71818;52.352;10.912;2023-09-19T13:32:07;99700.69;;;18.56;53.31
82222;BME280;71818;52.352;10.912;2023-09-19T13:34:36;99695.13;;;18.80;52.52
82222;BME280;71818;52.352;10.912;2023-09-19T13:37:03;99700.78;;;18.71;51.85
82222;BME280;71818;52.352;10.912;2023-09-19T13:39:29;99696.50;;;18.54;52.68